Time;durP1;ratioP1;P1;durP2;ratioP2;P2;SDS_P1;SDS_P2;PMS_P1;PMS_P2;Temp;Humidity;BMP_temperature;BMP_pressure;BME280_temperature;BME280_humidity;BME280_pressure;Samples;Min_cycle;Max_cycle;Signal;HPM_P1;HPM_P2
2022/12/29 00:00:19;;;;;;;6.47;6.27;;;23.30;59.50;;;;;;5012939;28;20545;-55
2022/12/29 00:02:47;;;;;;;7.03;6.83;;;23.30;58.60;;;;;;5012948;28;20442;-56
2022/12/29 00:05:14;;;;;;;7.00;6.70;;;23.10;58.40;;;;;;5012084;28;20838;-56
2022/12/29 00:07:41;;;;;;;6.73;6.53;;;23.00;58.70;;;;;;5012841;28;20905;-53
2022/12/29 00:10:08;;;;;;;6.67;6.47;;;22.90;59.10;;;;;;5012406;28;20533;-54
2022/12/29 00:15:38;;;;;;;6.23;6.13;;;22.70;59.10;;;;;;5012917;28;20839;-55
2022/12/29 00:18:07;;;;;;;6.50;6.40;;;22.70;59.20;;;;;;5012675;28;20473;-55
2022/12/29 00:37:04;;;;;;;6.97;6.77;;;22.40;59.70;;;;;;5012446;28;20441;-55
2022/12/29 00:44:59;;;;;;;8.00;6.67;;;22.30;59.80;;;;;;5012082;28;20426;-54
2022/12/29 00:47:26;;;;;;;7.20;7.00;;;22.30;59.90;;;;;;5012220;28;20468;-56
2022/12/29 00:49:53;;;;;;;6.77;6.50;;;22.20;59.90;;;;;;5012005;28;20861;-58
2022/12/29 00:52:20;;;;;;;6.53;6.37;;;22.20;60.00;;;;;;5011820;28;20963;-59
2022/12/29 00:54:46;;;;;;;8.13;7.60;;;22.20;60.00;;;;;;5012309;28;20450;-57
2022/12/29 00:57:13;;;;;;;6.40;6.20;;;22.20;60.00;;;;;;5012078;28;20556;-55
2022/12/29 00:59:42;;;;;;;6.20;6.00;;;22.20;60.00;;;;;;5011916;28;21010;-54
2022/12/29 01:02:10;;;;;;;6.37;6.17;;;22.10;60.00;;;;;;5012131;28;20453;-54
2022/12/29 01:04:37;;;;;;;5.93;5.83;;;22.10;60.00;;;;;;5011776;28;20438;-56
2022/12/29 01:07:05;;;;;;;6.13;6.03;;;22.10;60.00;;;;;;5011986;28;20474;-58
2022/12/29 01:12:39;;;;;;;6.50;6.30;;;22.00;60.00;;;;;;5011995;28;20418;-56
2022/12/29 01:15:04;;;;;;;6.03;5.83;;;22.00;60.00;;;;;;4992330;28;20434;-55
2022/12/29 01:17:31;;;;;;;6.23;5.93;;;22.00;60.00;;;;;;4991889;28;20557;-57
2022/12/29 01:19:58;;;;;;;5.90;5.80;;;22.00;60.00;;;;;;4992112;28;20929;-56
2022/12/29 01:22:26;;;;;;;7.33;7.03;;;22.00;60.00;;;;;;5006388;28;20449;-55
2022/12/29 01:24:53;;;;;;;6.13;5.87;;;22.00;60.00;;;;;;5011854;28;21030;-56
2022/12/29 01:27:19;;;;;;;6.63;6.43;;;21.90;60.20;;;;;;5011826;28;20548;-56
2022/12/29 01:29:46;;;;;;;6.47;6.30;;;21.90;60.40;;;;;;5011650;28;20452;-55
2022/12/29 01:32:13;;;;;;;6.00;5.90;;;21.90;60.60;;;;;;5011509;28;20545;-53
2022/12/29 01:34:40;;;;;;;6.13;6.00;;;21.90;60.60;;;;;;5011718;28;20568;-57
2022/12/29 01:37:06;;;;;;;6.10;5.80;;;21.90;60.40;;;;;;5011784;28;20466;-53
2022/12/29 01:39:35;;;;;;;6.13;6.03;;;21.90;60.50;;;;;;5011528;28;20532;-54
2022/12/29 01:42:01;;;;;;;6.10;5.90;;;21.90;60.60;;;;;;5011643;28;20446;-55
2022/12/29 01:44:51;;;;;;;6.07;5.97;;;21.80;60.60;;;;;;5011481;28;20443;-55
2022/12/29 01:47:26;;;;;;;6.23;6.03;;;21.80;60.60;;;;;;5011615;28;20825;-57
2022/12/29 01:49:56;;;;;;;6.93;6.73;;;21.80;60.60;;;;;;5011355;28;20524;-55
2022/12/29 01:52:25;;;;;;;6.57;6.37;;;21.80;60.60;;;;;;5011709;28;20457;-55
2022/12/29 01:54:56;;;;;;;6.30;6.10;;;21.80;60.50;;;;;;5011407;28;20485;-54
2022/12/29 01:57:26;;;;;;;6.00;5.90;;;21.80;60.60;;;;;;5011581;28;20474;-57
2022/12/29 01:59:57;;;;;;;6.43;6.23;;;21.80;60.50;;;;;;5011298;28;20826;-58
2022/12/29 02:02:25;;;;;;;5.93;5.80;;;21.80;60.50;;;;;;5011490;28;20456;-56
2022/12/29 02:04:54;;;;;;;6.10;6.00;;;21.70;60.40;;;;;;5011422;28;20450;-56
2022/12/29 02:07:25;;;;;;;5.93;5.80;;;21.70;60.60;;;;;;5011130;28;20470;-56
2022/12/29 02:09:54;;;;;;;5.90;5.70;;;21.70;61.20;;;;;;5011320;28;20457;-56
2022/12/29 02:12:23;;;;;;;5.77;5.67;;;21.70;60.40;;;;;;5011621;28;20778;-55
2022/12/29 02:14:57;;;;;;;5.97;5.87;;;21.70;60.30;;;;;;5011444;28;20496;-55
2022/12/29 02:17:36;;;;;;;6.00;5.90;;;21.70;60.20;;;;;;5010980;28;20476;-58
2022/12/29 02:20:36;;;;;;;6.00;5.90;;;21.70;60.20;;;;;;5011137;28;20452;-55
2022/12/29 02:23:22;;;;;;;5.87;5.67;;;21.60;60.00;;;;;;5009521;28;20446;-54
2022/12/29 02:26:09;;;;;;;6.73;6.50;;;21.70;60.20;;;;;;5011372;28;20446;-56
2022/12/29 02:29:07;;;;;;;6.60;6.30;;;21.60;60.20;;;;;;5012869;28;20441;-57
2022/12/29 02:31:42;;;;;;;5.97;5.87;;;21.60;60.40;;;;;;4994727;28;20473;-54
2022/12/29 02:34:23;;;;;;;5.63;5.53;;;21.60;60.50;;;;;;4995345;28;20486;-53
2022/12/29 02:37:01;;;;;;;5.60;5.50;;;21.60;60.60;;;;;;4995598;28;20848;-55
2022/12/29 02:39:36;;;;;;;5.70;5.60;;;21.60;61.40;;;;;;4999109;28;20445;-57
2022/12/29 02:42:12;;;;;;;5.97;5.87;;;21.60;60.70;;;;;;5014526;28;20456;-56
2022/12/29 02:44:51;;;;;;;5.93;5.83;;;21.60;60.60;;;;;;5014585;28;20483;-58
2022/12/29 02:47:25;;;;;;;6.00;5.90;;;21.50;60.50;;;;;;5014899;28;20465;-54
2022/12/29 02:50:00;;;;;;;6.47;6.27;;;21.50;60.50;;;;;;5014791;28;20533;-52
2022/12/29 02:52:32;;;;;;;5.77;5.67;;;21.60;60.60;;;;;;5014951;28;20459;-53
2022/12/29 02:54:59;;;;;;;5.73;5.63;;;21.50;60.50;;;;;;5014915;28;20491;-54
2022/12/29 02:57:32;;;;;;;5.83;5.73;;;21.50;60.40;;;;;;5014760;28;20458;-53
2022/12/29 03:00:03;;;;;;;5.60;5.50;;;21.50;60.50;;;;;;5014716;28;20453;-54
2022/12/29 03:03:06;;;;;;;6.10;6.00;;;21.50;60.50;;;;;;5014692;28;20810;-53
2022/12/29 03:05:50;;;;;;;5.67;5.57;;;21.50;60.50;;;;;;4994625;28;20451;-57
2022/12/29 03:08:23;;;;;;;5.37;5.27;;;21.50;60.40;;;;;;4994456;28;20475;-56
2022/12/29 03:10:59;;;;;;;6.20;6.00;;;21.50;60.40;;;;;;4994258;28;20461;-53
2022/12/29 03:16:23;;;;;;;5.93;5.73;;;21.50;60.40;;;;;;5001929;28;20441;-53
2022/12/29 03:18:58;;;;;;;5.83;5.73;;;21.50;60.40;;;;;;5013625;28;20456;-55
2022/12/29 03:24:14;;;;;;;5.50;5.40;;;21.50;60.40;;;;;;5013462;28;20461;-53
2022/12/29 03:26:42;;;;;;;6.10;5.90;;;21.40;60.30;;;;;;5013654;28;20458;-56
2022/12/29 03:29:10;;;;;;;5.67;5.47;;;21.40;60.30;;;;;;5013570;28;20936;-54
2022/12/29 03:31:39;;;;;;;6.17;5.97;;;21.40;61.10;;;;;;5013515;28;20454;-55
2022/12/29 03:34:09;;;;;;;5.20;5.13;;;21.40;60.30;;;;;;5013549;28;20485;-54
2022/12/29 03:36:43;;;;;;;5.73;5.60;;;21.40;60.40;;;;;;5013468;28;20488;-55
2022/12/29 03:39:12;;;;;;;5.50;5.40;;;21.40;60.60;;;;;;5013475;28;20456;-55
2022/12/29 03:41:44;;;;;;;5.90;5.80;;;21.40;60.70;;;;;;5013405;28;20511;-52
2022/12/29 03:44:11;;;;;;;5.70;5.50;;;21.40;60.70;;;;;;5013531;28;20446;-56
2022/12/29 03:46:38;;;;;;;5.73;5.63;;;21.40;60.70;;;;;;5013267;28;20492;-58
2022/12/29 03:49:06;;;;;;;5.40;5.30;;;21.40;60.70;;;;;;5012962;28;20445;-56
2022/12/29 03:51:33;;;;;;;6.07;5.97;;;21.40;60.70;;;;;;5013159;28;20446;-54
2022/12/29 03:54:00;;;;;;;5.70;5.60;;;21.40;60.80;;;;;;5013276;28;20905;-54
2022/12/29 03:56:27;;;;;;;6.10;6.00;;;21.40;60.80;;;;;;5013105;28;20452;-57
2022/12/29 03:58:54;;;;;;;5.80;5.70;;;21.40;60.80;;;;;;5012983;28;20890;-56
2022/12/29 04:01:21;;;;;;;5.50;5.40;;;21.40;60.70;;;;;;5012870;28;20537;-56
2022/12/29 04:03:47;;;;;;;6.07;5.97;;;21.40;60.70;;;;;;5013070;28;20445;-55
2022/12/29 04:06:15;;;;;;;5.67;5.57;;;21.40;60.70;;;;;;5012919;28;20864;-55
2022/12/29 04:08:42;;;;;;;6.13;5.93;;;21.30;60.60;;;;;;5013123;28;20450;-55
2022/12/29 04:11:09;;;;;;;5.93;5.83;;;21.40;60.90;;;;;;5012844;28;20880;-54
2022/12/29 04:13:37;;;;;;;5.90;5.80;;;21.40;61.00;;;;;;5012543;28;20451;-54
2022/12/29 04:16:04;;;;;;;5.50;5.40;;;21.40;61.00;;;;;;5012952;28;20450;-56
2022/12/29 04:18:31;;;;;;;6.03;5.93;;;21.40;61.10;;;;;;5012593;28;20505;-56
2022/12/29 04:21:02;;;;;;;6.17;6.00;;;21.40;61.00;;;;;;5012715;28;20532;-53
2022/12/29 04:23:31;;;;;;;6.43;6.27;;;21.40;61.00;;;;;;5012870;28;20454;-55
2022/12/29 04:25:58;;;;;;;5.83;5.73;;;21.40;61.00;;;;;;5012407;28;20454;-56
2022/12/29 04:28:25;;;;;;;6.17;6.00;;;21.40;61.00;;;;;;5012528;28;20979;-56
2022/12/29 04:30:52;;;;;;;6.10;6.00;;;21.40;60.80;;;;;;5012330;28;20453;-55
2022/12/29 04:33:19;;;;;;;5.77;5.67;;;21.40;61.00;;;;;;5012263;28;20452;-57
2022/12/29 04:35:46;;;;;;;6.20;6.00;;;21.40;61.00;;;;;;5012451;28;20485;-54
2022/12/29 04:38:13;;;;;;;6.00;5.90;;;21.40;60.90;;;;;;5012366;28;20480;-54
2022/12/29 04:40:43;;;;;;;5.70;5.60;;;21.50;61.10;;;;;;5012142;28;20472;-54
2022/12/29 04:43:10;;;;;;;6.07;5.97;;;21.40;60.90;;;;;;5012142;28;20548;-57
2022/12/29 04:45:38;;;;;;;6.87;6.77;;;21.40;60.80;;;;;;5012281;28;20442;-57
2022/12/29 04:48:05;;;;;;;5.70;5.60;;;21.40;60.80;;;;;;5012209;28;20462;-58
2022/12/29 04:50:32;;;;;;;6.40;6.30;;;21.40;60.80;;;;;;5011630;28;20452;-58
2022/12/29 04:52:59;;;;;;;6.23;6.03;;;21.40;60.70;;;;;;5012207;28;20454;-57
2022/12/29 04:55:26;;;;;;;6.37;6.27;;;21.50;60.80;;;;;;5011969;28;20798;-56
2022/12/29 04:57:54;;;;;;;6.20;6.10;;;21.40;60.60;;;;;;5012240;28;20466;-56
2022/12/29 05:00:21;;;;;;;6.03;5.93;;;21.40;60.70;;;;;;5011992;28;20456;-56
2022/12/29 05:02:48;;;;;;;6.13;5.93;;;21.40;60.60;;;;;;5012162;28;20449;-58
2022/12/29 05:05:16;;;;;;;6.40;6.30;;;21.40;60.70;;;;;;5012143;28;20439;-57
2022/12/29 05:07:42;;;;;;;6.37;6.23;;;21.50;60.70;;;;;;5011689;28;20469;-57
2022/12/29 05:10:10;;;;;;;6.50;6.40;;;21.50;60.60;;;;;;5011878;28;20450;-57
2022/12/29 05:12:38;;;;;;;6.50;6.30;;;21.40;60.50;;;;;;5011960;28;20446;-57
2022/12/29 05:15:09;;;;;;;6.50;6.30;;;21.40;60.40;;;;;;5011798;28;20492;-57
2022/12/29 05:17:36;;;;;;;6.83;6.73;;;21.50;60.50;;;;;;5012921;28;20480;-56
2022/12/29 05:20:04;;;;;;;7.00;6.90;;;21.50;60.40;;;;;;5012689;28;20965;-56
2022/12/29 05:22:31;;;;;;;7.20;7.10;;;21.50;60.40;;;;;;5013261;28;20452;-59
2022/12/29 05:24:57;;;;;;;6.97;6.87;;;21.50;60.30;;;;;;5013719;28;20940;-54
2022/12/29 05:27:24;;;;;;;7.27;7.10;;;21.50;60.40;;;;;;5013047;28;20565;-56
2022/12/29 05:29:51;;;;;;;7.20;7.10;;;21.50;60.40;;;;;;5013063;28;20540;-57
2022/12/29 05:32:20;;;;;;;7.23;7.13;;;21.50;60.30;;;;;;5013510;28;20457;-56
2022/12/29 05:34:47;;;;;;;7.17;7.07;;;21.50;60.30;;;;;;5013428;28;20485;-57
2022/12/29 05:37:13;;;;;;;7.40;7.23;;;21.50;60.20;;;;;;5013515;28;20556;-57
2022/12/29 05:39:40;;;;;;;6.80;6.70;;;21.50;60.20;;;;;;5013332;28;20975;-57
2022/12/29 05:42:07;;;;;;;7.30;7.20;;;21.50;61.00;;;;;;5013593;28;20444;-57
2022/12/29 05:44:34;;;;;;;7.10;7.00;;;21.50;60.40;;;;;;5013136;28;20454;-55
2022/12/29 05:47:01;;;;;;;7.20;7.10;;;21.40;60.40;;;;;;5012946;28;20552;-57
2022/12/29 05:49:29;;;;;;;7.33;7.17;;;21.50;60.50;;;;;;5012726;28;20872;-57
2022/12/29 05:51:56;;;;;;;6.90;6.80;;;21.50;60.50;;;;;;5012784;28;20804;-55
2022/12/29 05:54:22;;;;;;;6.83;6.73;;;21.50;60.50;;;;;;5012552;28;20569;-54
2022/12/29 05:56:49;;;;;;;7.40;7.20;;;21.40;60.40;;;;;;5012496;28;20572;-55
2022/12/29 05:59:16;;;;;;;7.40;7.27;;;21.50;60.50;;;;;;5012364;28;20446;-57
2022/12/29 06:01:43;;;;;;;6.63;6.53;;;21.50;60.50;;;;;;5012802;28;20457;-58
2022/12/29 06:04:10;;;;;;;7.23;7.13;;;21.50;60.40;;;;;;5015223;28;20553;-58
2022/12/29 06:06:38;;;;;;;7.07;6.97;;;21.50;60.40;;;;;;5016412;28;20560;-57
2022/12/29 06:09:05;;;;;;;6.83;6.73;;;21.50;60.40;;;;;;5015855;28;20449;-57
2022/12/29 06:11:32;;;;;;;7.13;7.03;;;21.50;60.50;;;;;;5016753;28;20890;-57
2022/12/29 06:13:59;;;;;;;7.00;6.90;;;21.50;60.30;;;;;;5016314;28;20517;-56
2022/12/29 06:16:25;;;;;;;6.90;6.80;;;21.50;60.40;;;;;;5016177;28;20877;-57
2022/12/29 06:18:52;;;;;;;7.30;7.10;;;21.50;60.30;;;;;;5016206;28;20538;-58
2022/12/29 06:21:19;;;;;;;7.30;7.10;;;21.50;60.30;;;;;;5016122;28;20540;-57
2022/12/29 06:23:47;;;;;;;7.20;7.10;;;21.50;60.30;;;;;;5016437;28;20524;-57
2022/12/29 06:26:14;;;;;;;7.30;7.00;;;21.50;60.40;;;;;;5016590;28;20448;-56
2022/12/29 06:28:41;;;;;;;8.20;8.00;;;21.50;60.30;;;;;;5016150;28;20437;-57
2022/12/29 06:31:10;;;;;;;7.70;7.60;;;21.50;61.30;;;;;;5016119;28;20951;-57
2022/12/29 06:33:37;;;;;;;8.63;8.43;;;21.50;61.50;;;;;;5015600;28;20449;-56
2022/12/29 06:36:05;;;;;;;7.80;7.50;;;21.50;60.60;;;;;;5015890;28;20482;-56
2022/12/29 06:38:31;;;;;;;7.80;7.70;;;21.50;60.70;;;;;;5015624;28;20462;-57
2022/12/29 06:41:00;;;;;;;8.03;7.83;;;21.50;60.70;;;;;;5015675;28;21003;-57
2022/12/29 06:43:26;;;;;;;8.37;8.20;;;21.50;60.70;;;;;;5015722;28;20536;-55
2022/12/29 06:45:53;;;;;;;7.90;7.70;;;21.40;60.70;;;;;;5015691;28;20892;-58
2022/12/29 06:48:20;;;;;;;7.97;7.87;;;21.50;60.80;;;;;;5015579;28;20470;-54
2022/12/29 06:50:47;;;;;;;8.23;8.03;;;21.50;61.50;;;;;;5015791;28;20446;-56
2022/12/29 06:53:14;;;;;;;7.80;7.70;;;21.50;60.80;;;;;;5015919;28;20890;-56
2022/12/29 06:55:42;;;;;;;8.37;8.17;;;21.40;60.60;;;;;;5016049;28;20486;-56
2022/12/29 06:58:10;;;;;;;8.13;7.93;;;21.50;60.60;;;;;;5015822;28;20473;-57
2022/12/29 07:00:36;;;;;;;8.83;8.63;;;21.50;60.50;;;;;;5015687;28;20481;-58
2022/12/29 07:03:03;;;;;;;8.40;8.20;;;21.50;60.50;;;;;;5016233;28;21023;-58
2022/12/29 07:05:32;;;;;;;8.10;7.90;;;21.50;60.50;;;;;;5016037;28;20521;-57
2022/12/29 07:07:59;;;;;;;7.60;7.40;;;21.40;60.40;;;;;;5016111;28;20984;-57
2022/12/29 07:10:27;;;;;;;7.93;7.73;;;21.50;60.50;;;;;;5015323;28;20861;-57
2022/12/29 07:12:53;;;;;;;7.57;7.43;;;21.50;60.50;;;;;;5015826;28;20985;-57
2022/12/29 07:15:22;;;;;;;7.60;7.40;;;21.50;60.60;;;;;;5015230;28;20568;-57
2022/12/29 07:17:49;;;;;;;7.80;7.70;;;21.50;60.70;;;;;;5016043;28;20565;-57
2022/12/29 07:20:16;;;;;;;8.00;7.80;;;21.50;60.80;;;;;;5015709;28;20461;-58
2022/12/29 07:22:43;;;;;;;8.30;8.20;;;21.50;60.80;;;;;;5015534;28;20528;-54
2022/12/29 07:25:10;;;;;;;7.63;7.53;;;21.50;60.80;;;;;;5015907;28;20477;-56
2022/12/29 07:27:37;;;;;;;7.73;7.53;;;21.50;60.90;;;;;;5015317;28;20560;-58
2022/12/29 07:30:04;;;;;;;7.53;7.43;;;21.50;60.80;;;;;;5015316;28;20540;-57
2022/12/29 07:32:34;;;;;;;7.47;7.27;;;21.50;60.70;;;;;;5015963;28;20809;-56
2022/12/29 07:35:02;;;;;;;7.80;7.70;;;21.50;60.70;;;;;;5015466;28;20481;-58
2022/12/29 07:37:28;;;;;;;8.37;8.17;;;21.50;60.70;;;;;;5015447;28;20465;-57
2022/12/29 07:39:55;;;;;;;8.03;7.83;;;21.50;60.60;;;;;;5014893;28;20450;-55
2022/12/29 07:42:22;;;;;;;7.77;7.57;;;21.50;60.60;;;;;;5015562;28;20540;-57
2022/12/29 07:44:49;;;;;;;7.70;7.50;;;21.50;60.60;;;;;;5015377;28;20535;-57
2022/12/29 07:47:16;;;;;;;7.53;7.40;;;21.50;60.60;;;;;;5015150;28;21041;-57
2022/12/29 07:49:44;;;;;;;7.67;7.53;;;21.50;60.50;;;;;;5015452;28;20448;-57
2022/12/29 07:52:11;;;;;;;7.73;7.63;;;21.50;60.60;;;;;;5015551;28;20554;-57
2022/12/29 07:54:37;;;;;;;8.10;7.90;;;21.50;60.50;;;;;;5015755;28;20453;-57
2022/12/29 07:57:05;;;;;;;7.47;7.27;;;21.50;60.50;;;;;;5014653;28;20554;-58
2022/12/29 07:59:32;;;;;;;8.23;8.03;;;21.50;60.40;;;;;;5014079;28;20484;-54
2022/12/29 08:01:59;;;;;;;7.53;7.43;;;21.50;60.50;;;;;;5015303;28;20525;-57
2022/12/29 08:04:26;;;;;;;7.70;7.60;;;21.40;60.50;;;;;;5014812;28;20476;-55
2022/12/29 08:06:54;;;;;;;7.63;7.43;;;21.50;60.60;;;;;;5014160;28;20544;-56
2022/12/29 08:09:21;;;;;;;7.53;7.37;;;21.50;60.80;;;;;;5014341;28;20528;-53
2022/12/29 08:11:47;;;;;;;7.53;7.33;;;21.50;60.90;;;;;;5014798;28;20545;-57
2022/12/29 08:14:14;;;;;;;8.30;8.10;;;21.50;61.40;;;;;;5015710;28;20557;-57
2022/12/29 08:16:41;;;;;;;8.57;8.27;;;21.50;61.30;;;;;;5014810;28;20489;-58
2022/12/29 08:19:08;;;;;;;7.97;7.87;;;21.50;61.40;;;;;;5015048;28;20530;-58
2022/12/29 08:21:35;;;;;;;8.70;8.50;;;21.40;61.20;;;;;;5014822;28;20450;-57
2022/12/29 08:24:03;;;;;;;7.80;7.70;;;21.40;61.10;;;;;;5015151;28;20536;-57
2022/12/29 08:26:30;;;;;;;8.30;8.10;;;21.50;61.30;;;;;;5013231;28;20446;-57
2022/12/29 08:28:57;;;;;;;7.90;7.70;;;21.40;61.20;;;;;;5014217;28;20541;-58
2022/12/29 08:31:24;;;;;;;7.73;7.63;;;21.40;61.20;;;;;;5013307;28;20892;-60
2022/12/29 08:33:51;;;;;;;8.20;8.00;;;21.50;61.60;;;;;;5012626;28;20546;-59
2022/12/29 08:36:18;;;;;;;7.90;7.70;;;21.50;61.70;;;;;;5012301;28;20516;-65
2022/12/29 08:38:45;;;;;;;7.50;7.40;;;21.50;61.60;;;;;;5012349;28;20529;-60
2022/12/29 08:41:13;;;;;;;7.70;7.60;;;21.60;61.60;;;;;;5012213;28;20540;-60
2022/12/29 08:43:40;;;;;;;8.30;8.10;;;21.70;62.30;;;;;;5012731;28;20453;-62
2022/12/29 08:46:06;;;;;;;8.10;7.80;;;21.80;62.40;;;;;;5012467;28;20441;-62
2022/12/29 08:48:33;;;;;;;8.00;7.80;;;21.80;62.10;;;;;;5012210;28;20560;-53
2022/12/29 08:51:00;;;;;;;8.10;7.90;;;21.90;61.50;;;;;;5011030;28;20449;-58
2022/12/29 08:53:27;;;;;;;8.37;8.17;;;22.00;60.80;;;;;;5012568;28;20982;-54
2022/12/29 08:55:58;;;;;;;7.90;7.70;;;22.00;60.30;;;;;;5012115;28;20600;-54
2022/12/29 08:58:26;;;;;;;7.87;7.77;;;22.10;60.10;;;;;;5012245;28;20470;-57
2022/12/29 09:00:54;;;;;;;8.23;8.07;;;22.10;60.20;;;;;;5011991;28;20476;-58
2022/12/29 09:03:21;;;;;;;7.90;7.70;;;22.10;60.20;;;;;;5011465;28;20454;-56
2022/12/29 09:05:49;;;;;;;8.93;8.70;;;22.20;60.60;;;;;;5012673;28;20829;-58
2022/12/29 09:08:17;;;;;;;8.30;8.07;;;22.20;60.50;;;;;;5012221;28;20481;-57
2022/12/29 09:10:44;;;;;;;8.30;8.10;;;22.30;60.40;;;;;;5012185;28;20441;-57
2022/12/29 09:13:11;;;;;;;8.20;8.00;;;22.30;60.40;;;;;;5012336;28;20454;-59
2022/12/29 09:15:40;;;;;;;8.27;8.07;;;22.30;60.50;;;;;;5011618;28;20481;-56
2022/12/29 09:18:08;;;;;;;8.73;8.53;;;22.40;60.60;;;;;;5012921;28;20478;-55
2022/12/29 09:20:35;;;;;;;8.33;8.13;;;22.40;60.60;;;;;;5011820;28;20473;-55
2022/12/29 09:23:02;;;;;;;7.83;7.67;;;22.50;60.20;;;;;;5012061;28;20442;-55
2022/12/29 09:25:29;;;;;;;8.00;7.90;;;22.50;59.90;;;;;;5011824;28;20455;-55
2022/12/29 09:27:56;;;;;;;8.40;8.20;;;22.40;59.60;;;;;;5012785;28;21002;-51
2022/12/29 09:30:24;;;;;;;8.50;8.20;;;22.50;59.50;;;;;;5012534;28;20546;-54
2022/12/29 09:32:52;;;;;;;8.53;8.33;;;22.50;59.40;;;;;;5012302;28;20478;-59
2022/12/29 09:35:19;;;;;;;8.60;8.40;;;22.50;63.50;;;;;;5013353;28;20460;-53
2022/12/29 09:37:46;;;;;;;8.53;8.33;;;22.60;60.30;;;;;;5015900;28;20461;-55
2022/12/29 09:40:25;;;;;;;8.60;8.40;;;22.60;60.30;;;;;;5017906;28;20444;-50
2022/12/29 09:43:20;;;;;;;7.83;7.73;;;22.70;59.40;;;;;;5018269;28;20478;-56
2022/12/29 09:45:55;;;;;;;8.77;8.50;;;22.70;59.20;;;;;;5017807;28;20533;-50
2022/12/29 09:48:28;;;;;;;8.53;8.33;;;22.70;59.00;;;;;;5018180;28;20465;-55
2022/12/29 09:50:58;;;;;;;8.30;8.10;;;22.80;58.90;;;;;;5016988;28;20891;-53
2022/12/29 09:53:31;;;;;;;8.87;8.57;;;22.80;58.80;;;;;;5017699;28;20446;-54
2022/12/29 09:56:01;;;;;;;8.60;8.30;;;22.80;58.60;;;;;;5017166;28;20668;-51
2022/12/29 09:58:33;;;;;;;8.20;8.00;;;22.90;58.60;;;;;;5017623;28;20983;-55
2022/12/29 10:01:04;;;;;;;8.73;8.53;;;22.90;58.50;;;;;;5016861;28;20456;-53
2022/12/29 10:03:46;;;;;;;8.63;8.43;;;22.90;58.30;;;;;;5016763;28;20450;-51
2022/12/29 10:06:18;;;;;;;9.00;8.70;;;22.90;58.30;;;;;;5015489;28;20446;-54
2022/12/29 10:08:50;;;;;;;9.80;9.40;;;22.90;58.30;;;;;;5014784;28;20454;-61
2022/12/29 10:11:29;;;;;;;9.00;8.80;;;23.00;59.50;;;;;;5015168;28;20448;-60
2022/12/29 10:14:13;;;;;;;9.27;8.87;;;23.00;59.00;;;;;;5015199;28;20445;-59
2022/12/29 10:16:49;;;;;;;9.73;9.17;;;23.00;58.70;;;;;;5014936;28;20568;-59
2022/12/29 10:19:40;;;;;;;9.70;9.40;;;23.10;59.20;;;;;;5014855;28;20970;-52
2022/12/29 10:22:17;;;;;;;8.50;8.23;;;23.00;58.20;;;;;;5015081;28;20559;-52
2022/12/29 10:24:47;;;;;;;9.00;8.70;;;23.00;58.20;;;;;;5014697;28;20541;-55
2022/12/29 10:27:16;;;;;;;8.50;8.30;;;23.00;59.00;;;;;;5014978;28;20552;-52
2022/12/29 10:29:49;;;;;;;8.67;8.30;;;22.90;58.20;;;;;;5014559;28;20454;-52
2022/12/29 10:32:25;;;;;;;8.20;8.00;;;22.90;58.00;;;;;;5015271;28;20450;-51
2022/12/29 10:34:56;;;;;;;8.73;8.50;;;22.90;57.80;;;;;;5014888;28;20437;-52
2022/12/29 10:37:31;;;;;;;8.90;8.60;;;22.90;57.70;;;;;;5014461;28;20521;-51
2022/12/29 10:40:00;;;;;;;8.83;8.63;;;22.80;57.50;;;;;;5014443;28;20990;-50
2022/12/29 10:42:28;;;;;;;9.20;8.90;;;22.80;57.40;;;;;;5014622;28;20508;-51
2022/12/29 10:44:55;;;;;;;9.40;9.00;;;22.80;57.30;;;;;;5014456;28;20464;-51
2022/12/29 10:47:26;;;;;;;8.37;8.17;;;22.80;57.30;;;;;;5014518;28;20457;-51
2022/12/29 10:49:54;;;;;;;8.20;8.00;;;22.80;57.10;;;;;;5013457;28;20452;-50
2022/12/29 10:52:23;;;;;;;8.57;8.27;;;22.80;57.00;;;;;;5014297;28;20446;-52
2022/12/29 10:54:54;;;;;;;8.60;8.40;;;22.80;56.90;;;;;;5014329;28;21046;-52
2022/12/29 10:57:27;;;;;;;9.27;9.07;;;22.80;56.70;;;;;;5014183;28;20864;-52
2022/12/29 10:59:53;;;;;;;8.87;8.57;;;22.80;56.70;;;;;;5014163;28;20835;-53
2022/12/29 11:02:53;;;;;;;8.57;8.37;;;22.70;56.50;;;;;;5014472;28;20545;-51
2022/12/29 11:05:29;;;;;;;8.80;8.60;;;22.70;56.50;;;;;;5014232;28;20456;-53
2022/12/29 11:08:01;;;;;;;8.90;8.40;;;22.70;56.40;;;;;;5013968;28;20464;-51
2022/12/29 11:10:35;;;;;;;8.90;8.60;;;22.70;56.30;;;;;;5013903;28;20476;-52
2022/12/29 11:13:05;;;;;;;8.60;8.30;;;22.70;56.10;;;;;;5014065;28;20448;-51
2022/12/29 11:15:41;;;;;;;7.97;7.87;;;22.70;56.10;;;;;;5014037;28;20449;-53
2022/12/29 11:18:22;;;;;;;8.53;8.33;;;22.70;55.90;;;;;;5014697;28;20474;-53
2022/12/29 11:20:52;;;;;;;8.90;8.70;;;22.70;55.80;;;;;;5013583;28;20454;-51
2022/12/29 11:23:29;;;;;;;8.53;8.23;;;22.70;55.90;;;;;;5013870;28;20448;-54
2022/12/29 11:26:16;;;;;;;8.20;8.00;;;22.70;55.90;;;;;;5013892;28;20437;-52
2022/12/29 11:28:44;;;;;;;8.50;8.30;;;22.70;55.80;;;;;;5013683;28;20446;-52
2022/12/29 11:31:15;;;;;;;8.30;8.10;;;22.70;55.80;;;;;;5013730;28;20442;-53
2022/12/29 11:33:42;;;;;;;8.73;8.43;;;22.70;55.70;;;;;;5013691;28;20943;-51
2022/12/29 11:36:15;;;;;;;8.20;8.00;;;22.80;55.50;;;;;;5013537;28;20495;-51
2022/12/29 11:38:47;;;;;;;8.50;8.30;;;22.80;55.50;;;;;;5013507;28;20464;-51
2022/12/29 11:41:20;;;;;;;8.17;7.97;;;22.80;55.40;;;;;;5013469;28;20935;-51
2022/12/29 11:43:48;;;;;;;8.60;8.40;;;22.70;55.20;;;;;;5013490;28;20446;-51
2022/12/29 11:46:19;;;;;;;8.10;7.90;;;22.80;55.10;;;;;;5013385;28;20473;-51
2022/12/29 11:48:47;;;;;;;8.53;8.23;;;22.80;55.00;;;;;;5013247;28;20927;-56
2022/12/29 11:51:24;;;;;;;8.10;7.90;;;22.80;54.90;;;;;;5013548;28;20446;-52
2022/12/29 11:53:53;;;;;;;8.47;8.27;;;22.80;54.90;;;;;;5013328;28;20939;-60
2022/12/29 11:56:32;;;;;;;8.73;8.53;;;22.80;54.80;;;;;;5013117;28;20492;-50
2022/12/29 11:58:58;;;;;;;8.70;8.30;;;22.80;54.70;;;;;;5012981;28;20456;-50
2022/12/29 12:01:32;;;;;;;8.37;8.17;;;22.80;54.80;;;;;;5013041;28;20505;-50
2022/12/29 12:04:03;;;;;;;8.30;8.10;;;22.80;54.70;;;;;;5013047;28;20950;-50
2022/12/29 12:06:37;;;;;;;8.83;8.63;;;22.90;54.70;;;;;;5012875;28;20545;-52
2022/12/29 12:09:08;;;;;;;8.53;8.33;;;22.90;54.70;;;;;;5012659;28;20954;-50
2022/12/29 12:11:38;;;;;;;9.07;8.67;;;22.90;54.70;;;;;;5012915;28;20939;-50
2022/12/29 12:14:13;;;;;;;8.60;8.30;;;22.90;54.60;;;;;;5012840;28;21011;-50
2022/12/29 12:16:44;;;;;;;8.03;7.83;;;22.90;54.60;;;;;;5012619;28;20580;-50
2022/12/29 12:19:20;;;;;;;8.50;8.30;;;22.90;54.50;;;;;;5012903;28;20950;-51
2022/12/29 12:21:57;;;;;;;9.10;8.90;;;22.90;54.50;;;;;;5012741;28;20446;-52
2022/12/29 12:24:48;;;;;;;9.03;8.73;;;22.90;54.50;;;;;;5012672;28;20453;-53
2022/12/29 12:27:21;;;;;;;8.17;7.90;;;22.90;54.40;;;;;;5009525;28;20478;-52
2022/12/29 12:29:56;;;;;;;8.00;7.80;;;22.90;54.30;;;;;;5012576;28;20453;-51
2022/12/29 12:32:27;;;;;;;7.97;7.73;;;22.90;54.30;;;;;;5012530;28;20452;-51
2022/12/29 12:34:53;;;;;;;8.43;8.00;;;22.90;54.20;;;;;;5012523;28;20500;-51
2022/12/29 12:37:47;;;;;;;8.23;8.03;;;22.90;54.10;;;;;;5011002;28;20856;-51
2022/12/29 12:40:36;;;;;;;8.77;8.53;;;22.90;54.10;;;;;;5007828;28;20460;-51
2022/12/29 12:43:22;;;;;;;8.57;8.27;;;22.90;54.10;;;;;;5012418;28;20442;-61
2022/12/29 12:46:01;;;;;;;9.13;8.90;;;23.00;54.20;;;;;;5013168;28;20456;-57
2022/12/29 12:48:56;;;;;;;9.90;9.50;;;22.80;54.60;;;;;;5012841;28;20484;-58
2022/12/29 12:51:33;;;;;;;9.57;9.17;;;22.70;55.60;;;;;;5012486;28;20967;-58
2022/12/29 12:54:15;;;;;;;9.10;8.90;;;22.70;55.80;;;;;;5012525;28;20452;-56
2022/12/29 12:56:55;;;;;;;9.40;9.10;;;22.70;55.90;;;;;;5012147;28;20481;-59
2022/12/29 12:59:38;;;;;;;7.80;7.50;;;22.70;56.00;;;;;;5008600;28;20440;-53
2022/12/29 13:02:18;;;;;;;9.40;9.00;;;22.80;56.20;;;;;;5011731;28;20213;-51
2022/12/29 13:05:00;;;;;;;9.17;8.83;;;22.90;55.60;;;;;;5011988;28;20442;-51
2022/12/29 13:07:35;;;;;;;8.80;8.60;;;22.90;55.30;;;;;;5011931;28;20473;-51
2022/12/29 13:10:19;;;;;;;9.40;9.20;;;22.90;55.30;;;;;;5012774;28;20438;-51
2022/12/29 13:12:53;;;;;;;8.70;8.50;;;23.00;55.40;;;;;;5011598;28;20815;-58
2022/12/29 13:15:38;;;;;;;9.10;8.70;;;23.00;56.00;;;;;;5011947;28;20445;-56
2022/12/29 13:18:16;;;;;;;8.90;8.70;;;22.90;56.10;;;;;;5011598;28;20856;-58
2022/12/29 13:20:48;;;;;;;9.00;8.80;;;22.90;56.10;;;;;;5011634;28;20473;-55
2022/12/29 13:23:25;;;;;;;8.68;8.45;;;22.90;56.00;;;;;;5011787;28;20882;-52
2022/12/29 13:26:05;;;;;;;8.50;8.30;;;22.90;56.10;;;;;;5011833;28;20202;-50
2022/12/29 13:28:39;;;;;;;8.63;8.43;;;22.90;55.70;;;;;;5011946;28;20470;-54
2022/12/29 13:31:16;;;;;;;9.57;9.37;;;22.80;55.50;;;;;;5011937;28;20860;-53
2022/12/29 13:33:52;;;;;;;8.40;8.20;;;22.80;55.60;;;;;;5011936;28;20456;-56
2022/12/29 13:36:24;;;;;;;8.83;8.53;;;22.80;55.80;;;;;;5011624;28;20446;-57
2022/12/29 13:39:02;;;;;;;8.70;8.40;;;22.80;56.20;;;;;;5011842;28;20446;-52